sensor_id;sensor_type;location;lat;lon;timestamp;P1;durP1;ratioP1;P2;durP2;ratioP2
31798;SDS011;18374;51.136;3.502;2022-12-08T00:01:31;12.52;;;6.78;;
31798;SDS011;18374;51.136;3.502;2022-12-08T00:04:01;12.75;;;6.13;;
31798;SDS011;18374;51.136;3.502;2022-12-08T00:06:31;16.80;;;7.30;;
31798;SDS011;18374;51.136;3.502;2022-12-08T00:09:36;11.73;;;6.68;;
31798;SDS011;18374;51.136;3.502;2022-12-08T00:12:07;11.82;;;6.57;;
31798;SDS011;18374;51.136;3.502;2022-12-08T00:14:44;13.88;;;6.38;;
31798;SDS011;18374;51.136;3.502;2022-12-08T00:17:14;12.93;;;6.60;;
31798;SDS011;18374;51.136;3.502;2022-12-08T00:19:43;15.50;;;6.63;;
31798;SDS011;18374;51.136;3.502;2022-12-08T00:22:11;13.63;;;7.00;;
31798;SDS011;18374;51.136;3.502;2022-12-08T00:24:41;17.20;;;6.53;;
31798;SDS011;18374;51.136;3.502;2022-12-08T00:27:12;9.98;;;5.72;;
31798;SDS011;18374;51.136;3.502;2022-12-08T00:29:42;11.85;;;6.68;;
31798;SDS011;18374;51.136;3.502;2022-12-08T00:32:11;10.35;;;5.88;;
31798;SDS011;18374;51.136;3.502;2022-12-08T00:34:40;13.63;;;5.88;;
31798;SDS011;18374;51.136;3.502;2022-12-08T00:37:08;13.13;;;6.28;;
31798;SDS011;18374;51.136;3.502;2022-12-08T00:39:35;9.73;;;6.05;;
31798;SDS011;18374;51.136;3.502;2022-12-08T00:42:03;12.68;;;5.18;;
31798;SDS011;18374;51.136;3.502;2022-12-08T00:44:40;10.18;;;4.70;;
31798;SDS011;18374;51.136;3.502;2022-12-08T00:47:11;10.68;;;5.30;;
31798;SDS011;18374;51.136;3.502;2022-12-08T00:49:40;11.00;;;5.53;;
31798;SDS011;18374;51.136;3.502;2022-12-08T00:52:08;10.85;;;5.55;;
31798;SDS011;18374;51.136;3.502;2022-12-08T00:54:35;12.27;;;5.35;;
31798;SDS011;18374;51.136;3.502;2022-12-08T00:57:03;9.77;;;5.70;;
31798;SDS011;18374;51.136;3.502;2022-12-08T00:59:31;11.57;;;6.10;;
31798;SDS011;18374;51.136;3.502;2022-12-08T01:01:58;13.20;;;5.97;;
31798;SDS011;18374;51.136;3.502;2022-12-08T01:04:26;19.35;;;6.10;;
31798;SDS011;18374;51.136;3.502;2022-12-08T01:06:54;13.60;;;5.78;;
31798;SDS011;18374;51.136;3.502;2022-12-08T01:09:22;9.30;;;5.70;;
31798;SDS011;18374;51.136;3.502;2022-12-08T01:11:49;10.23;;;5.22;;
31798;SDS011;18374;51.136;3.502;2022-12-08T01:14:17;13.10;;;5.32;;
31798;SDS011;18374;51.136;3.502;2022-12-08T01:16:45;9.45;;;5.30;;
31798;SDS011;18374;51.136;3.502;2022-12-08T01:19:13;12.63;;;5.60;;
31798;SDS011;18374;51.136;3.502;2022-12-08T01:21:43;10.15;;;4.53;;
31798;SDS011;18374;51.136;3.502;2022-12-08T01:24:16;16.50;;;6.22;;
31798;SDS011;18374;51.136;3.502;2022-12-08T01:26:46;14.20;;;4.88;;
31798;SDS011;18374;51.136;3.502;2022-12-08T01:29:16;11.88;;;5.28;;
31798;SDS011;18374;51.136;3.502;2022-12-08T01:31:44;7.20;;;4.80;;
31798;SDS011;18374;51.136;3.502;2022-12-08T01:34:11;8.68;;;5.28;;
31798;SDS011;18374;51.136;3.502;2022-12-08T01:36:40;7.65;;;4.93;;
31798;SDS011;18374;51.136;3.502;2022-12-08T01:39:13;9.75;;;5.28;;
31798;SDS011;18374;51.136;3.502;2022-12-08T01:41:44;10.25;;;5.38;;
31798;SDS011;18374;51.136;3.502;2022-12-08T01:46:44;8.27;;;5.13;;
31798;SDS011;18374;51.136;3.502;2022-12-08T01:49:17;9.70;;;5.77;;
31798;SDS011;18374;51.136;3.502;2022-12-08T01:54:25;14.88;;;4.80;;
31798;SDS011;18374;51.136;3.502;2022-12-08T01:56:59;12.18;;;4.75;;
31798;SDS011;18374;51.136;3.502;2022-12-08T01:59:36;11.90;;;5.25;;
31798;SDS011;18374;51.136;3.502;2022-12-08T02:02:08;10.50;;;5.07;;
31798;SDS011;18374;51.136;3.502;2022-12-08T02:04:37;10.10;;;4.88;;
31798;SDS011;18374;51.136;3.502;2022-12-08T02:07:05;11.57;;;5.07;;
31798;SDS011;18374;51.136;3.502;2022-12-08T02:09:36;12.45;;;5.65;;
31798;SDS011;18374;51.136;3.502;2022-12-08T02:12:04;10.30;;;6.07;;
31798;SDS011;18374;51.136;3.502;2022-12-08T02:14:33;14.65;;;5.57;;
31798;SDS011;18374;51.136;3.502;2022-12-08T02:23:00;11.55;;;4.38;;
31798;SDS011;18374;51.136;3.502;2022-12-08T02:26:02;9.80;;;4.45;;
31798;SDS011;18374;51.136;3.502;2022-12-08T02:40:59;5.88;;;3.45;;
31798;SDS011;18374;51.136;3.502;2022-12-08T02:46:53;5.70;;;3.50;;
31798;SDS011;18374;51.136;3.502;2022-12-08T02:49:29;12.75;;;4.13;;
31798;SDS011;18374;51.136;3.502;2022-12-08T02:52:06;7.15;;;4.55;;
31798;SDS011;18374;51.136;3.502;2022-12-08T02:54:40;13.50;;;5.25;;
31798;SDS011;18374;51.136;3.502;2022-12-08T02:57:22;7.35;;;4.88;;
31798;SDS011;18374;51.136;3.502;2022-12-08T03:00:14;9.57;;;5.10;;
31798;SDS011;18374;51.136;3.502;2022-12-08T03:08:48;11.13;;;5.25;;
31798;SDS011;18374;51.136;3.502;2022-12-08T03:14:27;11.63;;;6.22;;
31798;SDS011;18374;51.136;3.502;2022-12-08T03:16:57;12.32;;;6.60;;
31798;SDS011;18374;51.136;3.502;2022-12-08T03:19:27;11.25;;;6.38;;
31798;SDS011;18374;51.136;3.502;2022-12-08T03:22:01;15.45;;;6.68;;
31798;SDS011;18374;51.136;3.502;2022-12-08T03:24:32;11.20;;;6.35;;
31798;SDS011;18374;51.136;3.502;2022-12-08T03:27:11;12.20;;;6.78;;
31798;SDS011;18374;51.136;3.502;2022-12-08T03:29:49;19.40;;;7.53;;
31798;SDS011;18374;51.136;3.502;2022-12-08T03:32:32;19.08;;;7.03;;
31798;SDS011;18374;51.136;3.502;2022-12-08T03:35:19;14.90;;;7.60;;
31798;SDS011;18374;51.136;3.502;2022-12-08T03:38:00;10.50;;;6.93;;
31798;SDS011;18374;51.136;3.502;2022-12-08T03:40:38;16.05;;;7.35;;
31798;SDS011;18374;51.136;3.502;2022-12-08T03:43:06;19.45;;;7.47;;
31798;SDS011;18374;51.136;3.502;2022-12-08T03:45:34;13.15;;;7.38;;
31798;SDS011;18374;51.136;3.502;2022-12-08T03:48:01;9.52;;;5.95;;
31798;SDS011;18374;51.136;3.502;2022-12-08T03:50:29;13.77;;;5.80;;
31798;SDS011;18374;51.136;3.502;2022-12-08T03:52:57;8.27;;;5.35;;
31798;SDS011;18374;51.136;3.502;2022-12-08T03:55:24;13.82;;;5.55;;
31798;SDS011;18374;51.136;3.502;2022-12-08T03:57:52;7.00;;;4.72;;
31798;SDS011;18374;51.136;3.502;2022-12-08T04:00:20;6.75;;;4.65;;
31798;SDS011;18374;51.136;3.502;2022-12-08T04:02:48;8.98;;;5.10;;
31798;SDS011;18374;51.136;3.502;2022-12-08T04:05:15;7.63;;;4.93;;
31798;SDS011;18374;51.136;3.502;2022-12-08T04:07:43;9.98;;;4.55;;
31798;SDS011;18374;51.136;3.502;2022-12-08T04:10:11;6.93;;;4.20;;
31798;SDS011;18374;51.136;3.502;2022-12-08T04:12:38;7.15;;;3.80;;
31798;SDS011;18374;51.136;3.502;2022-12-08T04:15:06;4.60;;;3.53;;
31798;SDS011;18374;51.136;3.502;2022-12-08T04:17:35;7.63;;;3.88;;
31798;SDS011;18374;51.136;3.502;2022-12-08T04:20:03;7.03;;;3.47;;
31798;SDS011;18374;51.136;3.502;2022-12-08T04:22:32;6.32;;;3.38;;
31798;SDS011;18374;51.136;3.502;2022-12-08T04:24:59;6.28;;;3.72;;
31798;SDS011;18374;51.136;3.502;2022-12-08T04:27:28;6.13;;;3.65;;
31798;SDS011;18374;51.136;3.502;2022-12-08T04:29:55;9.68;;;5.45;;
31798;SDS011;18374;51.136;3.502;2022-12-08T04:32:23;8.27;;;5.78;;
31798;SDS011;18374;51.136;3.502;2022-12-08T04:34:50;12.65;;;6.03;;
31798;SDS011;18374;51.136;3.502;2022-12-08T04:37:18;12.00;;;6.40;;
31798;SDS011;18374;51.136;3.502;2022-12-08T04:39:46;11.25;;;6.85;;
31798;SDS011;18374;51.136;3.502;2022-12-08T04:42:13;13.65;;;7.30;;
31798;SDS011;18374;51.136;3.502;2022-12-08T04:44:41;16.17;;;7.47;;
31798;SDS011;18374;51.136;3.502;2022-12-08T04:47:09;14.57;;;7.35;;
31798;SDS011;18374;51.136;3.502;2022-12-08T04:49:36;20.38;;;8.02;;
31798;SDS011;18374;51.136;3.502;2022-12-08T04:52:04;14.02;;;8.13;;
31798;SDS011;18374;51.136;3.502;2022-12-08T04:54:32;17.17;;;7.40;;
31798;SDS011;18374;51.136;3.502;2022-12-08T04:56:59;13.02;;;7.47;;
31798;SDS011;18374;51.136;3.502;2022-12-08T04:59:27;12.13;;;7.53;;
31798;SDS011;18374;51.136;3.502;2022-12-08T05:01:55;17.52;;;8.15;;
31798;SDS011;18374;51.136;3.502;2022-12-08T05:04:23;16.98;;;7.35;;
31798;SDS011;18374;51.136;3.502;2022-12-08T05:06:51;14.43;;;7.50;;
31798;SDS011;18374;51.136;3.502;2022-12-08T05:09:18;11.65;;;6.80;;
31798;SDS011;18374;51.136;3.502;2022-12-08T05:11:46;19.33;;;8.77;;
31798;SDS011;18374;51.136;3.502;2022-12-08T05:14:15;15.32;;;8.02;;
31798;SDS011;18374;51.136;3.502;2022-12-08T05:16:44;17.80;;;8.43;;
31798;SDS011;18374;51.136;3.502;2022-12-08T05:19:13;13.70;;;7.30;;
31798;SDS011;18374;51.136;3.502;2022-12-08T05:21:42;13.30;;;7.90;;
31798;SDS011;18374;51.136;3.502;2022-12-08T05:24:10;14.55;;;7.93;;
31798;SDS011;18374;51.136;3.502;2022-12-08T05:26:37;14.52;;;8.10;;
31798;SDS011;18374;51.136;3.502;2022-12-08T05:29:05;13.65;;;7.55;;
31798;SDS011;18374;51.136;3.502;2022-12-08T05:31:33;13.43;;;7.85;;
31798;SDS011;18374;51.136;3.502;2022-12-08T05:34:00;16.10;;;8.02;;
31798;SDS011;18374;51.136;3.502;2022-12-08T05:36:29;13.15;;;7.47;;
31798;SDS011;18374;51.136;3.502;2022-12-08T05:38:57;13.75;;;7.47;;
31798;SDS011;18374;51.136;3.502;2022-12-08T05:41:25;15.13;;;8.05;;
31798;SDS011;18374;51.136;3.502;2022-12-08T05:43:52;17.40;;;7.50;;
31798;SDS011;18374;51.136;3.502;2022-12-08T05:46:20;13.70;;;8.20;;
31798;SDS011;18374;51.136;3.502;2022-12-08T05:48:48;16.65;;;8.00;;
31798;SDS011;18374;51.136;3.502;2022-12-08T05:51:20;17.65;;;8.60;;
31798;SDS011;18374;51.136;3.502;2022-12-08T05:53:50;20.45;;;9.20;;
31798;SDS011;18374;51.136;3.502;2022-12-08T05:56:19;18.60;;;8.45;;
31798;SDS011;18374;51.136;3.502;2022-12-08T05:58:47;19.55;;;8.98;;
31798;SDS011;18374;51.136;3.502;2022-12-08T06:01:19;18.38;;;9.48;;
31798;SDS011;18374;51.136;3.502;2022-12-08T06:03:51;19.38;;;8.82;;
31798;SDS011;18374;51.136;3.502;2022-12-08T06:06:20;23.60;;;8.65;;
31798;SDS011;18374;51.136;3.502;2022-12-08T06:08:48;20.33;;;9.10;;
31798;SDS011;18374;51.136;3.502;2022-12-08T06:11:29;15.43;;;8.20;;
31798;SDS011;18374;51.136;3.502;2022-12-08T06:13:58;18.23;;;8.68;;
31798;SDS011;18374;51.136;3.502;2022-12-08T06:16:26;13.13;;;6.53;;
31798;SDS011;18374;51.136;3.502;2022-12-08T06:18:55;12.23;;;5.88;;
31798;SDS011;18374;51.136;3.502;2022-12-08T06:21:23;15.73;;;6.07;;
31798;SDS011;18374;51.136;3.502;2022-12-08T06:23:51;10.23;;;5.90;;
31798;SDS011;18374;51.136;3.502;2022-12-08T06:26:20;13.30;;;5.65;;
31798;SDS011;18374;51.136;3.502;2022-12-08T06:28:48;16.98;;;5.95;;
31798;SDS011;18374;51.136;3.502;2022-12-08T06:31:24;9.85;;;4.97;;
31798;SDS011;18374;51.136;3.502;2022-12-08T06:36:22;7.55;;;3.42;;
31798;SDS011;18374;51.136;3.502;2022-12-08T06:38:54;11.38;;;3.38;;
31798;SDS011;18374;51.136;3.502;2022-12-08T06:41:22;5.68;;;2.40;;
31798;SDS011;18374;51.136;3.502;2022-12-08T06:43:50;4.95;;;2.42;;
31798;SDS011;18374;51.136;3.502;2022-12-08T06:46:18;5.70;;;2.17;;
31798;SDS011;18374;51.136;3.502;2022-12-08T06:48:46;3.72;;;2.30;;
31798;SDS011;18374;51.136;3.502;2022-12-08T06:51:17;4.72;;;2.38;;
31798;SDS011;18374;51.136;3.502;2022-12-08T06:53:46;5.47;;;2.17;;
31798;SDS011;18374;51.136;3.502;2022-12-08T06:56:15;4.32;;;2.20;;
31798;SDS011;18374;51.136;3.502;2022-12-08T06:58:45;3.92;;;1.90;;
31798;SDS011;18374;51.136;3.502;2022-12-08T07:01:18;4.47;;;2.10;;
31798;SDS011;18374;51.136;3.502;2022-12-08T07:03:46;4.28;;;2.08;;
31798;SDS011;18374;51.136;3.502;2022-12-08T07:06:23;3.00;;;1.90;;
31798;SDS011;18374;51.136;3.502;2022-12-08T07:08:51;5.50;;;2.40;;
31798;SDS011;18374;51.136;3.502;2022-12-08T07:11:19;5.72;;;2.58;;
31798;SDS011;18374;51.136;3.502;2022-12-08T07:13:48;6.32;;;2.30;;
31798;SDS011;18374;51.136;3.502;2022-12-08T07:16:16;7.55;;;2.55;;
31798;SDS011;18374;51.136;3.502;2022-12-08T07:18:44;4.80;;;2.50;;
31798;SDS011;18374;51.136;3.502;2022-12-08T07:21:12;5.00;;;2.55;;
31798;SDS011;18374;51.136;3.502;2022-12-08T07:23:41;6.03;;;2.50;;
31798;SDS011;18374;51.136;3.502;2022-12-08T07:26:12;11.23;;;2.42;;
31798;SDS011;18374;51.136;3.502;2022-12-08T07:28:40;5.40;;;2.88;;
31798;SDS011;18374;51.136;3.502;2022-12-08T07:31:16;6.30;;;2.70;;
31798;SDS011;18374;51.136;3.502;2022-12-08T07:33:47;7.35;;;3.10;;
31798;SDS011;18374;51.136;3.502;2022-12-08T07:36:16;8.77;;;3.20;;
31798;SDS011;18374;51.136;3.502;2022-12-08T07:38:44;8.20;;;3.50;;
31798;SDS011;18374;51.136;3.502;2022-12-08T07:41:12;19.90;;;4.05;;
31798;SDS011;18374;51.136;3.502;2022-12-08T07:43:42;4.28;;;3.15;;
31798;SDS011;18374;51.136;3.502;2022-12-08T07:46:11;7.30;;;2.95;;
31798;SDS011;18374;51.136;3.502;2022-12-08T07:48:44;5.32;;;3.35;;
31798;SDS011;18374;51.136;3.502;2022-12-08T07:51:13;13.02;;;3.50;;
31798;SDS011;18374;51.136;3.502;2022-12-08T07:53:43;13.38;;;3.88;;
31798;SDS011;18374;51.136;3.502;2022-12-08T07:56:19;7.63;;;3.35;;
31798;SDS011;18374;51.136;3.502;2022-12-08T07:58:47;9.68;;;4.22;;
31798;SDS011;18374;51.136;3.502;2022-12-08T08:01:20;10.98;;;4.18;;
31798;SDS011;18374;51.136;3.502;2022-12-08T08:03:57;11.00;;;4.45;;
31798;SDS011;18374;51.136;3.502;2022-12-08T08:06:31;6.38;;;3.85;;
31798;SDS011;18374;51.136;3.502;2022-12-08T08:09:00;10.20;;;3.80;;
31798;SDS011;18374;51.136;3.502;2022-12-08T08:11:28;6.18;;;3.88;;
31798;SDS011;18374;51.136;3.502;2022-12-08T08:13:56;6.30;;;3.72;;
31798;SDS011;18374;51.136;3.502;2022-12-08T08:16:24;8.35;;;3.90;;
31798;SDS011;18374;51.136;3.502;2022-12-08T08:18:52;8.55;;;4.18;;
31798;SDS011;18374;51.136;3.502;2022-12-08T08:21:20;6.43;;;3.60;;
31798;SDS011;18374;51.136;3.502;2022-12-08T08:24:08;6.43;;;4.00;;
31798;SDS011;18374;51.136;3.502;2022-12-08T08:26:36;12.05;;;4.50;;
31798;SDS011;18374;51.136;3.502;2022-12-08T08:29:04;10.98;;;4.47;;
31798;SDS011;18374;51.136;3.502;2022-12-08T08:31:32;10.82;;;3.97;;
31798;SDS011;18374;51.136;3.502;2022-12-08T08:34:01;9.40;;;4.00;;
31798;SDS011;18374;51.136;3.502;2022-12-08T08:36:32;8.20;;;3.88;;
31798;SDS011;18374;51.136;3.502;2022-12-08T08:39:00;8.02;;;3.55;;
31798;SDS011;18374;51.136;3.502;2022-12-08T08:41:29;8.57;;;3.95;;
31798;SDS011;18374;51.136;3.502;2022-12-08T08:43:57;6.72;;;3.40;;
31798;SDS011;18374;51.136;3.502;2022-12-08T08:46:25;7.32;;;3.90;;
31798;SDS011;18374;51.136;3.502;2022-12-08T08:48:53;5.05;;;3.80;;
31798;SDS011;18374;51.136;3.502;2022-12-08T08:51:20;9.55;;;3.80;;
31798;SDS011;18374;51.136;3.502;2022-12-08T08:53:50;13.57;;;3.97;;
31798;SDS011;18374;51.136;3.502;2022-12-08T08:56:18;14.38;;;4.07;;
31798;SDS011;18374;51.136;3.502;2022-12-08T08:58:50;10.45;;;4.40;;
31798;SDS011;18374;51.136;3.502;2022-12-08T09:01:20;23.20;;;4.30;;
31798;SDS011;18374;51.136;3.502;2022-12-08T09:03:53;40.42;;;5.57;;
31798;SDS011;18374;51.136;3.502;2022-12-08T09:06:22;27.15;;;5.40;;
31798;SDS011;18374;51.136;3.502;2022-12-08T09:08:50;8.68;;;4.35;;
31798;SDS011;18374;51.136;3.502;2022-12-08T09:11:18;7.55;;;4.25;;
31798;SDS011;18374;51.136;3.502;2022-12-08T09:13:46;10.65;;;4.07;;
31798;SDS011;18374;51.136;3.502;2022-12-08T09:16:16;10.63;;;4.70;;
31798;SDS011;18374;51.136;3.502;2022-12-08T09:18:45;8.68;;;4.05;;
31798;SDS011;18374;51.136;3.502;2022-12-08T09:21:16;7.88;;;3.67;;
31798;SDS011;18374;51.136;3.502;2022-12-08T09:23:49;8.77;;;4.40;;
31798;SDS011;18374;51.136;3.502;2022-12-08T09:26:19;9.00;;;3.88;;
31798;SDS011;18374;51.136;3.502;2022-12-08T09:28:48;9.57;;;4.00;;
31798;SDS011;18374;51.136;3.502;2022-12-08T09:31:18;6.18;;;4.50;;
31798;SDS011;18374;51.136;3.502;2022-12-08T09:33:48;11.02;;;4.93;;
31798;SDS011;18374;51.136;3.502;2022-12-08T09:36:20;9.93;;;4.40;;
31798;SDS011;18374;51.136;3.502;2022-12-08T09:38:48;8.77;;;4.15;;
31798;SDS011;18374;51.136;3.502;2022-12-08T09:50:13;8.32;;;4.68;;
31798;SDS011;18374;51.136;3.502;2022-12-08T09:52:57;11.65;;;4.70;;
31798;SDS011;18374;51.136;3.502;2022-12-08T09:58:16;11.75;;;5.40;;
31798;SDS011;18374;51.136;3.502;2022-12-08T10:01:09;12.15;;;5.25;;
31798;SDS011;18374;51.136;3.502;2022-12-08T10:03:38;13.90;;;5.90;;
31798;SDS011;18374;51.136;3.502;2022-12-08T10:11:26;19.55;;;5.22;;
31798;SDS011;18374;51.136;3.502;2022-12-08T10:14:15;16.63;;;5.95;;
31798;SDS011;18374;51.136;3.502;2022-12-08T10:17:24;11.52;;;5.53;;
31798;SDS011;18374;51.136;3.502;2022-12-08T10:20:14;12.98;;;5.35;;
31798;SDS011;18374;51.136;3.502;2022-12-08T10:23:01;12.40;;;5.80;;
31798;SDS011;18374;51.136;3.502;2022-12-08T10:26:03;9.60;;;4.20;;
31798;SDS011;18374;51.136;3.502;2022-12-08T10:28:37;12.88;;;4.75;;
31798;SDS011;18374;51.136;3.502;2022-12-08T10:31:15;9.55;;;4.55;;
31798;SDS011;18374;51.136;3.502;2022-12-08T10:33:50;7.38;;;3.70;;
31798;SDS011;18374;51.136;3.502;2022-12-08T10:36:51;7.38;;;3.92;;
31798;SDS011;18374;51.136;3.502;2022-12-08T10:39:28;9.75;;;3.45;;
31798;SDS011;18374;51.136;3.502;2022-12-08T10:44:53;13.60;;;4.22;;
31798;SDS011;18374;51.136;3.502;2022-12-08T10:47:27;7.95;;;3.17;;
31798;SDS011;18374;51.136;3.502;2022-12-08T10:50:07;5.78;;;3.20;;
31798;SDS011;18374;51.136;3.502;2022-12-08T10:55:26;8.32;;;3.15;;
31798;SDS011;18374;51.136;3.502;2022-12-08T10:57:56;6.85;;;3.17;;
31798;SDS011;18374;51.136;3.502;2022-12-08T11:00:24;8.20;;;3.10;;
31798;SDS011;18374;51.136;3.502;2022-12-08T11:02:56;6.90;;;3.28;;
31798;SDS011;18374;51.136;3.502;2022-12-08T11:05:27;8.45;;;3.08;;
31798;SDS011;18374;51.136;3.502;2022-12-08T11:08:01;9.43;;;3.50;;
31798;SDS011;18374;51.136;3.502;2022-12-08T11:10:35;7.10;;;3.40;;
31798;SDS011;18374;51.136;3.502;2022-12-08T11:13:15;7.47;;;3.42;;
31798;SDS011;18374;51.136;3.502;2022-12-08T11:15:51;5.35;;;2.75;;
31798;SDS011;18374;51.136;3.502;2022-12-08T11:18:22;8.10;;;2.60;;
31798;SDS011;18374;51.136;3.502;2022-12-08T11:21:10;7.57;;;2.30;;
31798;SDS011;18374;51.136;3.502;2022-12-08T11:23:48;5.32;;;2.40;;
31798;SDS011;18374;51.136;3.502;2022-12-08T11:26:25;6.28;;;2.70;;
31798;SDS011;18374;51.136;3.502;2022-12-08T11:28:57;8.57;;;2.92;;
31798;SDS011;18374;51.136;3.502;2022-12-08T11:31:37;5.07;;;2.90;;
31798;SDS011;18374;51.136;3.502;2022-12-08T11:34:14;4.20;;;2.58;;
31798;SDS011;18374;51.136;3.502;2022-12-08T11:37:03;6.00;;;2.33;;
31798;SDS011;18374;51.136;3.502;2022-12-08T11:39:33;3.30;;;2.05;;
31798;SDS011;18374;51.136;3.502;2022-12-08T11:42:06;5.50;;;2.00;;
31798;SDS011;18374;51.136;3.502;2022-12-08T11:47:25;5.28;;;2.63;;
31798;SDS011;18374;51.136;3.502;2022-12-08T11:50:12;6.15;;;2.80;;
31798;SDS011;18374;51.136;3.502;2022-12-08T11:52:48;3.50;;;2.55;;
31798;SDS011;18374;51.136;3.502;2022-12-08T11:58:37;6.15;;;2.83;;
31798;SDS011;18374;51.136;3.502;2022-12-08T12:01:21;10.35;;;3.45;;
31798;SDS011;18374;51.136;3.502;2022-12-08T12:26:21;0.82;;;0.60;;
31798;SDS011;18374;51.136;3.502;2022-12-08T12:31:35;2.85;;;0.80;;
31798;SDS011;18374;51.136;3.502;2022-12-08T12:34:20;3.90;;;1.10;;
31798;SDS011;18374;51.136;3.502;2022-12-08T12:40:14;3.00;;;0.93;;
31798;SDS011;18374;51.136;3.502;2022-12-08T12:42:46;2.50;;;0.98;;
31798;SDS011;18374;51.136;3.502;2022-12-08T12:45:25;0.98;;;0.40;;
31798;SDS011;18374;51.136;3.502;2022-12-08T12:50:47;2.20;;;0.35;;
31798;SDS011;18374;51.136;3.502;2022-12-08T13:03:40;4.18;;;0.63;;
31798;SDS011;18374;51.136;3.502;2022-12-08T13:06:31;1.38;;;0.40;;
31798;SDS011;18374;51.136;3.502;2022-12-08T13:09:04;0.30;;;0.20;;
31798;SDS011;18374;51.136;3.502;2022-12-08T13:11:46;2.17;;;0.22;;
31798;SDS011;18374;51.136;3.502;2022-12-08T13:14:30;0.95;;;0.32;;
31798;SDS011;18374;51.136;3.502;2022-12-08T13:17:04;1.40;;;0.40;;
31798;SDS011;18374;51.136;3.502;2022-12-08T13:19:38;6.70;;;0.90;;
31798;SDS011;18374;51.136;3.502;2022-12-08T13:28:20;8.02;;;3.67;;
31798;SDS011;18374;51.136;3.502;2022-12-08T13:30:58;3.28;;;1.38;;
31798;SDS011;18374;51.136;3.502;2022-12-08T13:33:37;2.42;;;1.50;;
31798;SDS011;18374;51.136;3.502;2022-12-08T13:36:12;1.65;;;1.00;;
31798;SDS011;18374;51.136;3.502;2022-12-08T13:38:49;1.83;;;1.00;;
31798;SDS011;18374;51.136;3.502;2022-12-08T13:41:31;2.60;;;1.00;;
31798;SDS011;18374;51.136;3.502;2022-12-08T13:44:23;1.60;;;0.90;;
31798;SDS011;18374;51.136;3.502;2022-12-08T13:47:24;1.67;;;0.98;;
31798;SDS011;18374;51.136;3.502;2022-12-08T13:50:03;2.03;;;1.05;;
31798;SDS011;18374;51.136;3.502;2022-12-08T13:56:09;5.53;;;2.53;;
31798;SDS011;18374;51.136;3.502;2022-12-08T13:59:21;8.07;;;2.83;;
31798;SDS011;18374;51.136;3.502;2022-12-08T14:01:55;7.43;;;2.40;;
31798;SDS011;18374;51.136;3.502;2022-12-08T14:04:27;6.57;;;3.05;;
31798;SDS011;18374;51.136;3.502;2022-12-08T14:07:15;6.63;;;2.85;;
31798;SDS011;18374;51.136;3.502;2022-12-08T14:09:43;12.75;;;4.82;;
31798;SDS011;18374;51.136;3.502;2022-12-08T14:12:17;9.77;;;5.13;;
31798;SDS011;18374;51.136;3.502;2022-12-08T14:14:57;9.00;;;4.93;;
31798;SDS011;18374;51.136;3.502;2022-12-08T14:17:32;8.32;;;3.97;;
31798;SDS011;18374;51.136;3.502;2022-12-08T14:20:01;6.15;;;3.42;;
31798;SDS011;18374;51.136;3.502;2022-12-08T14:22:39;5.53;;;3.08;;
31798;SDS011;18374;51.136;3.502;2022-12-08T14:25:10;5.88;;;3.00;;
31798;SDS011;18374;51.136;3.502;2022-12-08T14:27:41;9.82;;;3.15;;
31798;SDS011;18374;51.136;3.502;2022-12-08T14:35:17;6.32;;;3.22;;
31798;SDS011;18374;51.136;3.502;2022-12-08T14:37:54;8.18;;;5.03;;
31798;SDS011;18374;51.136;3.502;2022-12-08T14:40:41;5.53;;;4.13;;
31798;SDS011;18374;51.136;3.502;2022-12-08T14:43:15;4.22;;;2.92;;
31798;SDS011;18374;51.136;3.502;2022-12-08T14:45:47;4.72;;;2.78;;
31798;SDS011;18374;51.136;3.502;2022-12-08T14:51:11;4.82;;;3.25;;
31798;SDS011;18374;51.136;3.502;2022-12-08T14:56:50;8.35;;;3.72;;
31798;SDS011;18374;51.136;3.502;2022-12-08T14:59:26;3.88;;;2.80;;
31798;SDS011;18374;51.136;3.502;2022-12-08T15:07:29;14.07;;;3.15;;
31798;SDS011;18374;51.136;3.502;2022-12-08T15:13:01;10.23;;;3.28;;
31798;SDS011;18374;51.136;3.502;2022-12-08T15:15:48;6.32;;;4.25;;
31798;SDS011;18374;51.136;3.502;2022-12-08T15:18:37;9.07;;;4.05;;
31798;SDS011;18374;51.136;3.502;2022-12-08T15:21:07;6.65;;;4.68;;
31798;SDS011;18374;51.136;3.502;2022-12-08T15:23:42;8.43;;;4.05;;
31798;SDS011;18374;51.136;3.502;2022-12-08T15:26:18;5.70;;;3.75;;
31798;SDS011;18374;51.136;3.502;2022-12-08T15:28:49;11.80;;;4.47;;
31798;SDS011;18374;51.136;3.502;2022-12-08T15:31:17;7.53;;;4.60;;
31798;SDS011;18374;51.136;3.502;2022-12-08T15:33:47;7.18;;;4.43;;
31798;SDS011;18374;51.136;3.502;2022-12-08T15:36:15;7.50;;;4.90;;
31798;SDS011;18374;51.136;3.502;2022-12-08T15:38:42;8.95;;;4.72;;
31798;SDS011;18374;51.136;3.502;2022-12-08T15:41:12;17.38;;;5.18;;
31798;SDS011;18374;51.136;3.502;2022-12-08T15:43:41;9.38;;;5.30;;
31798;SDS011;18374;51.136;3.502;2022-12-08T15:46:13;8.32;;;5.72;;
31798;SDS011;18374;51.136;3.502;2022-12-08T15:48:44;14.32;;;6.00;;
31798;SDS011;18374;51.136;3.502;2022-12-08T15:51:12;8.98;;;5.32;;
31798;SDS011;18374;51.136;3.502;2022-12-08T15:53:40;13.45;;;6.55;;
31798;SDS011;18374;51.136;3.502;2022-12-08T15:56:08;10.65;;;5.72;;
31798;SDS011;18374;51.136;3.502;2022-12-08T15:58:53;7.90;;;5.45;;
31798;SDS011;18374;51.136;3.502;2022-12-08T16:01:23;8.50;;;6.53;;
31798;SDS011;18374;51.136;3.502;2022-12-08T16:03:52;10.75;;;6.13;;
31798;SDS011;18374;51.136;3.502;2022-12-08T16:06:40;11.63;;;5.72;;
31798;SDS011;18374;51.136;3.502;2022-12-08T16:09:32;12.20;;;5.97;;
31798;SDS011;18374;51.136;3.502;2022-12-08T16:12:18;9.88;;;6.00;;
31798;SDS011;18374;51.136;3.502;2022-12-08T16:15:33;16.63;;;8.38;;
31798;SDS011;18374;51.136;3.502;2022-12-08T16:18:24;13.20;;;8.13;;
31798;SDS011;18374;51.136;3.502;2022-12-08T16:20:57;14.02;;;9.10;;
31798;SDS011;18374;51.136;3.502;2022-12-08T16:27:30;17.05;;;8.50;;
31798;SDS011;18374;51.136;3.502;2022-12-08T16:39:22;11.98;;;8.07;;
31798;SDS011;18374;51.136;3.502;2022-12-08T16:41:50;13.43;;;7.65;;
31798;SDS011;18374;51.136;3.502;2022-12-08T16:44:38;10.38;;;6.80;;
31798;SDS011;18374;51.136;3.502;2022-12-08T16:49:54;10.05;;;6.95;;
31798;SDS011;18374;51.136;3.502;2022-12-08T16:52:29;9.77;;;7.20;;
31798;SDS011;18374;51.136;3.502;2022-12-08T16:55:01;11.02;;;6.72;;
31798;SDS011;18374;51.136;3.502;2022-12-08T16:57:30;8.43;;;6.75;;
31798;SDS011;18374;51.136;3.502;2022-12-08T16:59:58;12.18;;;7.97;;
31798;SDS011;18374;51.136;3.502;2022-12-08T17:02:30;10.60;;;7.28;;
31798;SDS011;18374;51.136;3.502;2022-12-08T17:05:00;8.93;;;7.13;;
31798;SDS011;18374;51.136;3.502;2022-12-08T17:07:28;10.30;;;7.15;;
31798;SDS011;18374;51.136;3.502;2022-12-08T17:10:03;11.88;;;7.30;;
31798;SDS011;18374;51.136;3.502;2022-12-08T17:12:42;11.57;;;6.95;;
31798;SDS011;18374;51.136;3.502;2022-12-08T17:15:19;11.93;;;7.50;;
31798;SDS011;18374;51.136;3.502;2022-12-08T17:18:17;15.73;;;9.50;;
31798;SDS011;18374;51.136;3.502;2022-12-08T17:20:53;19.98;;;12.55;;
31798;SDS011;18374;51.136;3.502;2022-12-08T17:23:40;20.30;;;12.23;;
31798;SDS011;18374;51.136;3.502;2022-12-08T17:26:09;24.85;;;15.45;;
31798;SDS011;18374;51.136;3.502;2022-12-08T17:28:37;20.20;;;14.45;;
31798;SDS011;18374;51.136;3.502;2022-12-08T17:31:25;17.67;;;12.02;;
31798;SDS011;18374;51.136;3.502;2022-12-08T17:33:58;22.83;;;10.85;;
31798;SDS011;18374;51.136;3.502;2022-12-08T17:36:31;18.73;;;10.27;;
31798;SDS011;18374;51.136;3.502;2022-12-08T17:38:59;15.63;;;9.77;;
31798;SDS011;18374;51.136;3.502;2022-12-08T17:41:27;15.88;;;9.63;;
31798;SDS011;18374;51.136;3.502;2022-12-08T17:43:56;17.95;;;9.60;;
31798;SDS011;18374;51.136;3.502;2022-12-08T17:46:24;18.10;;;9.68;;
31798;SDS011;18374;51.136;3.502;2022-12-08T17:48:52;16.13;;;9.48;;